Time;durP1;ratioP1;P1;durP2;ratioP2;P2;SDS_P1;SDS_P2;PMS_P1;PMS_P2;Temp;Humidity;BMP_temperature;BMP_pressure;BME280_temperature;BME280_humidity;BME280_pressure;Samples;Min_cycle;Max_cycle;Signal;HPM_P1;HPM_P2
2023/08/14 00:02:27;;;;;;;3.90;2.40;;;;;;;;;;5099616;28;20681;-65
2023/08/14 00:04:56;;;;;;;2.50;2.30;;;;;;;;;;5106862;28;20732;-68
2023/08/14 00:07:24;;;;;;;4.70;2.30;;;;;;;;;;5108367;28;20661;-64
2023/08/14 00:09:52;;;;;;;2.67;2.47;;;;;;;;;;5108051;28;20676;-65
2023/08/14 00:12:22;;;;;;;5.57;2.33;;;;;;;;;;5102294;28;20688;-65
2023/08/14 00:14:50;;;;;;;4.17;2.37;;;;;;;;;;5105128;28;20744;-64
2023/08/14 00:17:18;;;;;;;3.30;2.53;;;;;;;;;;5106894;28;20630;-65
2023/08/14 00:19:47;;;;;;;4.03;2.63;;;;;;;;;;5106051;28;20649;-65
2023/08/14 00:22:15;;;;;;;14.00;2.90;;;;;;;;;;5103245;28;20672;-69
2023/08/14 00:24:43;;;;;;;3.27;2.97;;;;;;;;;;5106820;28;20676;-65
2023/08/14 00:27:11;;;;;;;4.30;2.87;;;;;;;;;;5108477;28;21040;-64
2023/08/14 00:29:41;;;;;;;4.20;2.57;;;;;;;;;;5086829;28;20721;-65
2023/08/14 00:32:09;;;;;;;4.10;2.93;;;;;;;;;;5107895;28;20683;-68
2023/08/14 00:34:37;;;;;;;3.93;3.20;;;;;;;;;;5107412;28;20724;-66
2023/08/14 00:37:06;;;;;;;5.93;3.73;;;;;;;;;;5105441;28;20648;-64
2023/08/14 00:39:34;;;;;;;3.27;2.97;;;;;;;;;;5068594;28;20759;-64
2023/08/14 00:42:02;;;;;;;2.97;2.77;;;;;;;;;;5090052;28;20724;-64
2023/08/14 00:44:31;;;;;;;9.20;2.77;;;;;;;;;;5107179;28;20653;-64
2023/08/14 00:47:00;;;;;;;3.50;2.80;;;;;;;;;;5089566;28;20681;-65
2023/08/14 00:49:29;;;;;;;3.90;2.93;;;;;;;;;;5107129;28;20653;-65
2023/08/14 00:51:57;;;;;;;5.13;3.07;;;;;;;;;;5107378;28;20671;-64
2023/08/14 00:54:25;;;;;;;5.40;3.27;;;;;;;;;;5107722;28;20736;-63
2023/08/14 00:56:53;;;;;;;3.43;3.13;;;;;;;;;;5107718;28;20641;-65
2023/08/14 00:59:22;;;;;;;3.70;3.30;;;;;;;;;;5107842;28;20645;-64
2023/08/14 01:01:51;;;;;;;4.43;3.17;;;;;;;;;;5089475;28;20651;-64
2023/08/14 01:04:20;;;;;;;5.30;2.80;;;;;;;;;;5088532;28;20713;-64
2023/08/14 01:06:49;;;;;;;2.93;2.70;;;;;;;;;;5104852;28;20692;-65
2023/08/14 01:09:17;;;;;;;3.23;3.03;;;;;;;;;;5106546;28;20710;-63
2023/08/14 01:11:54;;;;;;;4.93;2.60;;;;;;;;;;5100676;28;20748;-65
2023/08/14 01:14:27;;;;;;;3.57;2.93;;;;;;;;;;5106071;28;20716;-64
2023/08/14 01:16:58;;;;;;;2.90;2.70;;;;;;;;;;5106986;28;20636;-68
2023/08/14 01:19:30;;;;;;;5.20;3.10;;;;;;;;;;5091286;28;20630;-65
2023/08/14 01:22:04;;;;;;;8.00;4.33;;;;;;;;;;5090132;28;20624;-64
2023/08/14 01:24:40;;;;;;;4.33;2.87;;;;;;;;;;5108478;28;20616;-65
2023/08/14 01:27:10;;;;;;;3.20;2.90;;;;;;;;;;5106961;28;20616;-65
2023/08/14 01:29:40;;;;;;;3.30;2.90;;;;;;;;;;5107247;28;20629;-63
2023/08/14 01:32:08;;;;;;;3.73;3.27;;;;;;;;;;5107179;28;20637;-64
2023/08/14 01:34:36;;;;;;;3.30;3.03;;;;;;;;;;5089391;28;20778;-64
2023/08/14 01:37:09;;;;;;;6.30;3.10;;;;;;;;;;5106970;28;21596;-65
2023/08/14 01:39:40;;;;;;;3.10;2.90;;;;;;;;;;5106990;28;20675;-64
2023/08/14 01:42:12;;;;;;;3.77;3.13;;;;;;;;;;5089356;28;21150;-64
2023/08/14 01:44:41;;;;;;;4.90;3.53;;;;;;;;;;5107423;28;20609;-63
2023/08/14 01:47:16;;;;;;;7.00;3.87;;;;;;;;;;5106802;28;20635;-64
2023/08/14 01:49:44;;;;;;;4.47;3.03;;;;;;;;;;5074809;28;20641;-63
2023/08/14 01:52:12;;;;;;;3.10;2.80;;;;;;;;;;5095710;28;20639;-65
2023/08/14 01:54:41;;;;;;;4.80;3.13;;;;;;;;;;5112924;28;20710;-64
2023/08/14 01:57:10;;;;;;;10.20;3.93;;;;;;;;;;5113365;28;20661;-64
2023/08/14 01:59:43;;;;;;;4.73;3.57;;;;;;;;;;5095555;28;20732;-63
2023/08/14 02:02:13;;;;;;;3.53;3.20;;;;;;;;;;5113423;28;20637;-64
2023/08/14 02:04:41;;;;;;;5.37;3.20;;;;;;;;;;5113204;28;20644;-65
2023/08/14 02:07:10;;;;;;;3.80;3.10;;;;;;;;;;5113316;28;20649;-65
2023/08/14 02:09:39;;;;;;;3.10;2.80;;;;;;;;;;5113744;28;21220;-63
2023/08/14 02:12:07;;;;;;;3.30;3.00;;;;;;;;;;5112519;28;20696;-63
2023/08/14 02:14:37;;;;;;;4.87;3.00;;;;;;;;;;5095767;28;20756;-63
2023/08/14 02:17:05;;;;;;;3.10;2.80;;;;;;;;;;5096068;28;20665;-63
2023/08/14 02:19:34;;;;;;;7.07;3.30;;;;;;;;;;5114299;28;20725;-63
2023/08/14 02:22:02;;;;;;;4.40;2.50;;;;;;;;;;5095614;28;20693;-63
2023/08/14 02:24:30;;;;;;;6.93;3.30;;;;;;;;;;5112630;28;20662;-63
2023/08/14 02:26:58;;;;;;;5.13;2.80;;;;;;;;;;5094601;28;20633;-63
2023/08/14 02:29:27;;;;;;;3.40;2.97;;;;;;;;;;5112538;28;20693;-63
2023/08/14 02:31:56;;;;;;;10.20;3.20;;;;;;;;;;5112178;28;20704;-66
2023/08/14 02:34:35;;;;;;;4.90;3.47;;;;;;;;;;5111867;28;20957;-64
2023/08/14 02:37:03;;;;;;;3.47;3.17;;;;;;;;;;5093822;28;20707;-64
2023/08/14 02:39:31;;;;;;;3.80;2.97;;;;;;;;;;5093365;28;20730;-64
2023/08/14 02:41:59;;;;;;;5.23;3.27;;;;;;;;;;5102397;28;20645;-63
2023/08/14 02:44:28;;;;;;;2.90;2.70;;;;;;;;;;5113382;28;20640;-63
2023/08/14 02:46:58;;;;;;;5.97;2.90;;;;;;;;;;5110971;28;20660;-64
2023/08/14 02:49:27;;;;;;;3.50;3.30;;;;;;;;;;5111772;28;21265;-64
2023/08/14 02:51:55;;;;;;;5.10;3.50;;;;;;;;;;5095065;28;20667;-66
2023/08/14 02:54:23;;;;;;;3.97;3.47;;;;;;;;;;5067747;28;20674;-64
2023/08/14 02:56:51;;;;;;;4.23;3.50;;;;;;;;;;5109617;28;20660;-63
2023/08/14 02:59:20;;;;;;;3.37;3.07;;;;;;;;;;5112980;28;20727;-63
2023/08/14 03:01:48;;;;;;;3.83;3.33;;;;;;;;;;5108658;28;20664;-64
2023/08/14 03:04:18;;;;;;;3.57;3.30;;;;;;;;;;5109229;28;20686;-64
2023/08/14 03:06:46;;;;;;;3.93;3.57;;;;;;;;;;5109382;28;21044;-65
2023/08/14 03:09:15;;;;;;;3.40;3.20;;;;;;;;;;5072937;28;20664;-63
2023/08/14 03:11:43;;;;;;;4.03;3.73;;;;;;;;;;5107099;28;21230;-63
2023/08/14 03:14:11;;;;;;;4.20;3.73;;;;;;;;;;5110649;28;20674;-63
2023/08/14 03:16:40;;;;;;;6.43;3.87;;;;;;;;;;5092699;28;20747;-63
2023/08/14 03:19:07;;;;;;;8.20;4.10;;;;;;;;;;5076493;28;21163;-63
2023/08/14 03:21:37;;;;;;;4.17;3.63;;;;;;;;;;5102627;28;20626;-65
2023/08/14 03:24:05;;;;;;;4.70;4.10;;;;;;;;;;5089813;28;20637;-64
2023/08/14 03:26:34;;;;;;;9.40;4.10;;;;;;;;;;5072251;28;20642;-63
2023/08/14 03:29:02;;;;;;;4.90;3.90;;;;;;;;;;5089639;28;20629;-64
2023/08/14 03:31:31;;;;;;;5.50;3.77;;;;;;;;;;5090555;28;20645;-65
2023/08/14 03:34:01;;;;;;;3.80;3.53;;;;;;;;;;5072049;28;20599;-64
2023/08/14 03:36:29;;;;;;;4.87;3.80;;;;;;;;;;5090599;28;20669;-64
2023/08/14 03:39:01;;;;;;;3.53;3.13;;;;;;;;;;5072217;28;20649;-63
2023/08/14 03:41:30;;;;;;;4.43;4.13;;;;;;;;;;5072631;28;20610;-63
2023/08/14 03:44:02;;;;;;;6.40;4.00;;;;;;;;;;5071710;28;20602;-65
2023/08/14 03:46:30;;;;;;;4.13;3.83;;;;;;;;;;5089651;28;20641;-63
2023/08/14 03:48:58;;;;;;;3.73;3.50;;;;;;;;;;5071246;28;20667;-63
2023/08/14 03:51:26;;;;;;;4.07;3.77;;;;;;;;;;5106029;28;20649;-63
2023/08/14 03:53:55;;;;;;;6.07;4.37;;;;;;;;;;5109082;28;20661;-68
2023/08/14 03:56:24;;;;;;;4.40;4.00;;;;;;;;;;5091531;28;20724;-65
2023/08/14 03:58:53;;;;;;;4.47;3.67;;;;;;;;;;5091336;28;20644;-65
2023/08/14 04:01:21;;;;;;;5.60;5.10;;;;;;;;;;5108259;28;20645;-65
2023/08/14 04:03:49;;;;;;;4.60;4.20;;;;;;;;;;5107758;28;20637;-67
2023/08/14 04:06:17;;;;;;;5.10;4.00;;;;;;;;;;5107036;28;20661;-65
2023/08/14 04:08:45;;;;;;;4.13;3.57;;;;;;;;;;5107775;28;20648;-69
2023/08/14 04:11:14;;;;;;;5.20;4.00;;;;;;;;;;5102173;28;20756;-65
2023/08/14 04:13:43;;;;;;;4.20;3.63;;;;;;;;;;5095224;28;20649;-64
2023/08/14 04:16:11;;;;;;;3.93;3.73;;;;;;;;;;5104765;28;20732;-66
2023/08/14 04:18:40;;;;;;;4.80;3.70;;;;;;;;;;5107016;28;20687;-65
2023/08/14 04:21:08;;;;;;;4.30;3.90;;;;;;;;;;5106748;28;21202;-64
2023/08/14 04:23:36;;;;;;;8.53;3.37;;;;;;;;;;5107619;28;20656;-65
2023/08/14 04:26:05;;;;;;;6.27;4.43;;;;;;;;;;5088362;28;21147;-65
2023/08/14 04:28:33;;;;;;;7.80;3.47;;;;;;;;;;5107135;28;20653;-66
2023/08/14 04:31:04;;;;;;;6.00;4.47;;;;;;;;;;5089088;28;20688;-64
2023/08/14 04:33:33;;;;;;;4.43;4.10;;;;;;;;;;5089437;28;20973;-64
2023/08/14 04:36:01;;;;;;;6.10;3.73;;;;;;;;;;5106718;28;20768;-64
2023/08/14 04:38:30;;;;;;;4.60;4.20;;;;;;;;;;5095911;28;20641;-65
2023/08/14 04:40:58;;;;;;;3.97;3.67;;;;;;;;;;5084355;28;20713;-66
2023/08/14 04:43:31;;;;;;;4.60;3.60;;;;;;;;;;5106454;28;20717;-65
2023/08/14 04:45:59;;;;;;;6.43;3.87;;;;;;;;;;5104042;28;20642;-65
2023/08/14 04:48:31;;;;;;;8.20;3.90;;;;;;;;;;5068922;28;20755;-64
2023/08/14 04:51:00;;;;;;;4.30;3.70;;;;;;;;;;5086294;28;20686;-65
2023/08/14 04:53:28;;;;;;;4.67;3.30;;;;;;;;;;5068650;28;20674;-65
2023/08/14 04:55:57;;;;;;;5.37;4.30;;;;;;;;;;5081594;28;20645;-64
2023/08/14 04:58:25;;;;;;;8.90;4.00;;;;;;;;;;5100571;28;20653;-64
2023/08/14 05:00:53;;;;;;;4.60;4.20;;;;;;;;;;5088201;28;20688;-66
2023/08/14 05:03:21;;;;;;;4.10;3.63;;;;;;;;;;5087118;28;20704;-65
2023/08/14 05:05:54;;;;;;;4.30;3.97;;;;;;;;;;5088342;28;20677;-64
2023/08/14 05:08:22;;;;;;;4.33;3.93;;;;;;;;;;5093602;28;20641;-64
2023/08/14 05:10:51;;;;;;;4.60;4.23;;;;;;;;;;5085503;28;20756;-65
2023/08/14 05:13:19;;;;;;;6.47;4.90;;;;;;;;;;5088219;28;20681;-65
2023/08/14 05:15:48;;;;;;;9.37;4.30;;;;;;;;;;5088683;28;20717;-64
2023/08/14 05:18:17;;;;;;;4.73;4.27;;;;;;;;;;5101562;28;20672;-65
2023/08/14 05:20:45;;;;;;;4.83;4.10;;;;;;;;;;5069230;28;21040;-67
2023/08/14 05:23:15;;;;;;;4.50;4.10;;;;;;;;;;5097886;28;20672;-64
2023/08/14 05:25:44;;;;;;;7.23;4.73;;;;;;;;;;5089119;28;20606;-64
2023/08/14 05:28:13;;;;;;;7.10;5.20;;;;;;;;;;5105681;28;21034;-64
2023/08/14 05:30:43;;;;;;;9.33;4.80;;;;;;;;;;5105995;28;20697;-64
2023/08/14 05:33:11;;;;;;;5.30;4.80;;;;;;;;;;5106290;28;20616;-64
2023/08/14 05:35:39;;;;;;;6.30;4.07;;;;;;;;;;5106444;28;20652;-66
2023/08/14 05:38:08;;;;;;;5.63;3.73;;;;;;;;;;5106941;28;20636;-66
2023/08/14 05:40:37;;;;;;;4.73;4.30;;;;;;;;;;5089297;28;20673;-65
2023/08/14 05:43:06;;;;;;;5.67;3.97;;;;;;;;;;5103278;28;20880;-64
2023/08/14 05:45:35;;;;;;;6.47;5.13;;;;;;;;;;5104519;28;20760;-65
2023/08/14 05:48:04;;;;;;;4.20;3.80;;;;;;;;;;5097275;28;20692;-64
2023/08/14 05:50:32;;;;;;;4.90;4.27;;;;;;;;;;5105606;28;21055;-64
2023/08/14 05:53:03;;;;;;;6.73;3.73;;;;;;;;;;5104667;28;20700;-65
2023/08/14 05:55:32;;;;;;;3.90;3.70;;;;;;;;;;5103859;28;21110;-65
2023/08/14 05:58:02;;;;;;;4.33;3.33;;;;;;;;;;5104722;28;20698;-65
2023/08/14 06:00:31;;;;;;;4.67;3.30;;;;;;;;;;5103038;28;20912;-65
2023/08/14 06:02:59;;;;;;;4.40;3.23;;;;;;;;;;5102733;28;20692;-65
2023/08/14 06:05:27;;;;;;;5.40;3.73;;;;;;;;;;5110496;28;20724;-64
2023/08/14 06:07:56;;;;;;;7.63;4.13;;;;;;;;;;5100384;28;20653;-67
2023/08/14 06:10:24;;;;;;;4.33;3.20;;;;;;;;;;5104142;28;20680;-66
2023/08/14 06:12:53;;;;;;;8.43;3.73;;;;;;;;;;5102356;28;20709;-64
2023/08/14 06:15:24;;;;;;;3.83;3.60;;;;;;;;;;5087478;28;20609;-64
2023/08/14 06:17:53;;;;;;;3.97;3.67;;;;;;;;;;5099356;28;20698;-64
2023/08/14 06:20:21;;;;;;;5.70;3.37;;;;;;;;;;5101778;28;20649;-64
2023/08/14 06:22:49;;;;;;;4.30;3.90;;;;;;;;;;5105657;28;20649;-64
2023/08/14 06:25:18;;;;;;;4.73;4.33;;;;;;;;;;5104024;28;20682;-68
2023/08/14 06:27:46;;;;;;;6.60;4.13;;;;;;;;;;5097111;28;20649;-66
2023/08/14 06:30:15;;;;;;;8.30;5.47;;;;;;;;;;5104269;28;20656;-64
2023/08/14 06:32:45;;;;;;;5.00;4.47;;;;;;;;;;5106620;28;20645;-65
2023/08/14 06:35:13;;;;;;;8.67;4.30;;;;;;;;;;5099462;28;20687;-65
2023/08/14 06:37:41;;;;;;;6.70;3.97;;;;;;;;;;5098048;28;20734;-64
2023/08/14 06:40:10;;;;;;;5.50;5.00;;;;;;;;;;5099208;28;20712;-65
2023/08/14 06:42:38;;;;;;;5.33;4.70;;;;;;;;;;5097257;28;20740;-65
2023/08/14 06:45:08;;;;;;;5.33;4.00;;;;;;;;;;5083084;28;20685;-64
2023/08/14 06:47:43;;;;;;;8.83;4.83;;;;;;;;;;5107150;28;20680;-63
2023/08/14 06:50:13;;;;;;;5.67;4.93;;;;;;;;;;5108122;28;20687;-63
2023/08/14 06:52:41;;;;;;;4.97;4.47;;;;;;;;;;5108525;28;20681;-63
2023/08/14 06:55:10;;;;;;;11.47;4.50;;;;;;;;;;5106314;28;20688;-63
2023/08/14 06:57:38;;;;;;;4.80;4.37;;;;;;;;;;5082958;28;20728;-64
2023/08/14 07:00:12;;;;;;;5.23;4.83;;;;;;;;;;5101028;28;20751;-64
2023/08/14 07:02:40;;;;;;;5.43;5.03;;;;;;;;;;5106090;28;20601;-63
2023/08/14 07:05:10;;;;;;;7.53;4.83;;;;;;;;;;5107000;28;20714;-64
2023/08/14 07:07:39;;;;;;;6.43;4.03;;;;;;;;;;5102838;28;20673;-63
2023/08/14 07:10:08;;;;;;;4.30;3.87;;;;;;;;;;5107348;28;20684;-64
2023/08/14 07:12:36;;;;;;;4.83;4.40;;;;;;;;;;5091283;28;20690;-63
2023/08/14 07:15:08;;;;;;;4.53;4.23;;;;;;;;;;5102877;28;20724;-64
2023/08/14 07:17:36;;;;;;;4.20;3.90;;;;;;;;;;5107394;28;20697;-63
2023/08/14 07:20:05;;;;;;;5.00;3.97;;;;;;;;;;5088675;28;20728;-63
2023/08/14 07:22:33;;;;;;;5.50;4.53;;;;;;;;;;5101854;28;20704;-66
2023/08/14 07:25:03;;;;;;;6.00;4.77;;;;;;;;;;5093965;28;21057;-63
2023/08/14 07:27:31;;;;;;;4.00;3.80;;;;;;;;;;5100680;28;20709;-63
2023/08/14 07:33:30;;;;;;;4.90;4.40;;;;;;;;;;5087120;28;20689;-63
2023/08/14 07:35:59;;;;;;;5.33;4.17;;;;;;;;;;5095861;28;20646;-63
2023/08/14 07:38:27;;;;;;;4.13;3.77;;;;;;;;;;5097163;28;20732;-63
2023/08/14 07:40:57;;;;;;;3.50;3.20;;;;;;;;;;5094423;28;20686;-64
2023/08/14 07:43:25;;;;;;;7.80;5.20;;;;;;;;;;5095363;28;20716;-67
2023/08/14 07:45:54;;;;;;;5.63;4.03;;;;;;;;;;5098201;28;21247;-63
2023/08/14 07:48:22;;;;;;;4.20;3.90;;;;;;;;;;5097848;28;21254;-63
2023/08/14 07:50:53;;;;;;;4.27;3.97;;;;;;;;;;5092328;28;20697;-63
2023/08/14 07:53:21;;;;;;;3.97;3.67;;;;;;;;;;5094178;28;21222;-63
2023/08/14 07:55:50;;;;;;;4.53;4.13;;;;;;;;;;5098453;28;20725;-63
2023/08/14 07:58:19;;;;;;;3.80;3.30;;;;;;;;;;5101561;28;20764;-63
2023/08/14 08:00:48;;;;;;;3.97;3.63;;;;;;;;;;5102794;28;20693;-64
2023/08/14 08:03:16;;;;;;;4.33;3.93;;;;;;;;;;5095494;28;20697;-63
2023/08/14 08:05:44;;;;;;;4.20;3.80;;;;;;;;;;5104733;28;20700;-63
2023/08/14 08:08:13;;;;;;;3.87;3.60;;;;;;;;;;5103444;28;20709;-63
2023/08/14 08:10:41;;;;;;;6.50;3.77;;;;;;;;;;5103958;28;21301;-65
2023/08/14 08:13:09;;;;;;;6.93;3.90;;;;;;;;;;5100520;28;20697;-63
2023/08/14 08:15:39;;;;;;;5.40;3.67;;;;;;;;;;5096044;28;20628;-66
2023/08/14 08:18:07;;;;;;;7.70;4.30;;;;;;;;;;5091465;28;21036;-66
2023/08/14 08:20:36;;;;;;;4.50;4.10;;;;;;;;;;5091911;28;20632;-67
2023/08/14 08:23:04;;;;;;;4.33;3.83;;;;;;;;;;5083279;28;20636;-67
2023/08/14 08:25:33;;;;;;;4.83;3.67;;;;;;;;;;5073918;28;20703;-66
2023/08/14 08:28:02;;;;;;;4.23;3.93;;;;;;;;;;5062771;28;20630;-68
2023/08/14 08:30:30;;;;;;;4.47;4.10;;;;;;;;;;5091359;28;20628;-69
2023/08/14 08:33:00;;;;;;;4.37;4.07;;;;;;;;;;5092366;28;20621;-68
2023/08/14 08:35:28;;;;;;;4.33;4.00;;;;;;;;;;5083060;28;21025;-67
2023/08/14 08:37:56;;;;;;;5.80;3.77;;;;;;;;;;5073172;28;20650;-67
2023/08/14 08:40:25;;;;;;;4.23;3.93;;;;;;;;;;5074413;28;20702;-67
2023/08/14 08:42:53;;;;;;;3.77;3.37;;;;;;;;;;5068193;28;21003;-67
2023/08/14 08:45:23;;;;;;;5.67;3.63;;;;;;;;;;5091892;28;21213;-66
2023/08/14 08:47:53;;;;;;;3.80;3.53;;;;;;;;;;5091605;28;20617;-67
2023/08/14 08:50:23;;;;;;;3.80;3.50;;;;;;;;;;5095265;28;21043;-68
2023/08/14 08:52:51;;;;;;;4.67;4.27;;;;;;;;;;5094372;28;20728;-69
2023/08/14 08:55:19;;;;;;;3.83;3.63;;;;;;;;;;5093241;28;20614;-70
2023/08/14 08:57:48;;;;;;;4.23;3.77;;;;;;;;;;5090890;28;20660;-71
2023/08/14 09:00:17;;;;;;;4.10;3.90;;;;;;;;;;5092764;28;21175;-68
2023/08/14 09:02:45;;;;;;;3.80;3.60;;;;;;;;;;5074056;28;20633;-70
2023/08/14 09:05:14;;;;;;;4.20;3.90;;;;;;;;;;5093564;28;21038;-68
2023/08/14 09:07:44;;;;;;;4.40;4.10;;;;;;;;;;5091864;28;20658;-70
2023/08/14 09:10:12;;;;;;;4.53;4.23;;;;;;;;;;5088733;28;20659;-68
2023/08/14 09:12:40;;;;;;;4.50;4.20;;;;;;;;;;5088327;28;20641;-68
2023/08/14 09:15:09;;;;;;;16.40;13.27;;;;;;;;;;5093258;28;20650;-68
2023/08/14 09:17:37;;;;;;;10.77;8.43;;;;;;;;;;5088687;28;20662;-67
2023/08/14 09:20:09;;;;;;;4.27;4.00;;;;;;;;;;5090180;28;20625;-69
2023/08/14 09:22:39;;;;;;;4.80;4.30;;;;;;;;;;5085585;28;20647;-69
2023/08/14 09:25:09;;;;;;;4.63;4.43;;;;;;;;;;5087870;28;20629;-70
2023/08/14 09:27:37;;;;;;;4.80;4.30;;;;;;;;;;5079830;28;20633;-69
2023/08/14 09:30:07;;;;;;;4.33;4.03;;;;;;;;;;5076506;28;21010;-67
2023/08/14 09:32:37;;;;;;;9.03;8.13;;;;;;;;;;5092250;28;20616;-68
2023/08/14 09:35:06;;;;;;;6.10;5.60;;;;;;;;;;5092471;28;20626;-69
2023/08/14 09:37:35;;;;;;;5.33;5.03;;;;;;;;;;5093280;28;20613;-68
2023/08/14 09:40:14;;;;;;;7.20;5.33;;;;;;;;;;5093040;28;20613;-70
2023/08/14 09:42:43;;;;;;;6.00;5.50;;;;;;;;;;5092442;28;20592;-70
2023/08/14 09:45:12;;;;;;;5.30;5.10;;;;;;;;;;5091097;28;20609;-70
2023/08/14 09:47:42;;;;;;;6.80;6.40;;;;;;;;;;5083471;28;20621;-69
2023/08/14 09:50:11;;;;;;;7.03;6.53;;;;;;;;;;5092470;28;20990;-68
2023/08/14 09:52:39;;;;;;;7.13;6.70;;;;;;;;;;5091717;28;20613;-68
2023/08/14 09:55:07;;;;;;;7.27;6.77;;;;;;;;;;5091121;28;20632;-68
2023/08/14 09:57:37;;;;;;;7.40;7.00;;;;;;;;;;5090391;28;21186;-68
2023/08/14 10:00:07;;;;;;;6.87;6.40;;;;;;;;;;5090931;28;20665;-68
2023/08/14 10:02:37;;;;;;;6.60;6.10;;;;;;;;;;5071562;28;20593;-68
2023/08/14 10:05:10;;;;;;;6.60;6.20;;;;;;;;;;5089589;28;20609;-69
2023/08/14 10:07:39;;;;;;;6.30;5.80;;;;;;;;;;5090522;28;20592;-68
2023/08/14 10:10:08;;;;;;;6.63;6.33;;;;;;;;;;5093570;28;20652;-68
2023/08/14 10:12:44;;;;;;;7.77;7.23;;;;;;;;;;5089066;28;21005;-68
2023/08/14 10:15:14;;;;;;;6.93;6.33;;;;;;;;;;5074970;28;20588;-68
2023/08/14 10:17:45;;;;;;;6.80;6.37;;;;;;;;;;5093860;28;20943;-68
2023/08/14 10:20:16;;;;;;;6.40;5.90;;;;;;;;;;5074777;28;20580;-68
2023/08/14 10:22:45;;;;;;;7.60;6.03;;;;;;;;;;5075425;28;20605;-68
2023/08/14 10:25:14;;;;;;;6.10;5.80;;;;;;;;;;5084107;28;21005;-68
2023/08/14 10:27:44;;;;;;;6.40;5.97;;;;;;;;;;5102325;28;21234;-66
2023/08/14 10:30:12;;;;;;;5.90;5.50;;;;;;;;;;5103397;28;20711;-66
2023/08/14 10:32:41;;;;;;;7.60;5.50;;;;;;;;;;5103398;28;20708;-66
2023/08/14 10:35:11;;;;;;;5.80;5.50;;;;;;;;;;5113891;28;20717;-66
2023/08/14 10:37:43;;;;;;;6.80;6.43;;;;;;;;;;5084650;28;21662;-66
2023/08/14 10:40:16;;;;;;;6.63;6.40;;;;;;;;;;5103941;28;20704;-65
2023/08/14 10:42:49;;;;;;;6.20;5.80;;;;;;;;;;5103071;28;20673;-65
2023/08/14 10:45:17;;;;;;;6.50;6.20;;;;;;;;;;5103181;28;20707;-66
2023/08/14 10:47:46;;;;;;;6.73;6.43;;;;;;;;;;5104190;28;20723;-65
2023/08/14 10:50:15;;;;;;;7.60;7.10;;;;;;;;;;5100924;28;20681;-65
2023/08/14 10:52:46;;;;;;;8.30;7.80;;;;;;;;;;5093978;28;20696;-65
2023/08/14 10:55:16;;;;;;;8.00;7.40;;;;;;;;;;5100147;28;20732;-65
2023/08/14 10:57:44;;;;;;;7.40;6.90;;;;;;;;;;5101765;28;20712;-65
2023/08/14 11:00:23;;;;;;;7.47;6.97;;;;;;;;;;5100803;28;21161;-65
2023/08/14 11:02:53;;;;;;;7.50;7.07;;;;;;;;;;5090979;28;20687;-65
2023/08/14 11:05:21;;;;;;;7.60;7.30;;;;;;;;;;5099567;28;21253;-66
2023/08/14 11:07:59;;;;;;;8.70;8.00;;;;;;;;;;5103823;28;21279;-66
2023/08/14 11:10:28;;;;;;;9.10;8.50;;;;;;;;;;5103548;28;20724;-66
2023/08/14 11:12:57;;;;;;;8.53;8.13;;;;;;;;;;5086190;28;20689;-66
2023/08/14 11:15:27;;;;;;;8.77;8.27;;;;;;;;;;5085019;28;20720;-67
2023/08/14 11:17:55;;;;;;;9.60;9.00;;;;;;;;;;5105407;28;20712;-69
2023/08/14 11:20:23;;;;;;;8.63;8.13;;;;;;;;;;5100303;28;20726;-65
2023/08/14 11:22:51;;;;;;;9.50;9.10;;;;;;;;;;5104428;28;20689;-65
2023/08/14 11:25:19;;;;;;;11.07;10.47;;;;;;;;;;5103420;28;20704;-66
2023/08/14 11:27:51;;;;;;;10.63;10.17;;;;;;;;;;5102297;28;20693;-67
2023/08/14 11:30:20;;;;;;;10.57;10.10;;;;;;;;;;5095989;28;21043;-66
2023/08/14 11:32:50;;;;;;;11.47;11.00;;;;;;;;;;5104802;28;20719;-65
2023/08/14 11:35:19;;;;;;;12.27;11.57;;;;;;;;;;5116141;28;20672;-66
2023/08/14 11:37:47;;;;;;;11.97;11.47;;;;;;;;;;5109225;28;21248;-66
2023/08/14 11:40:16;;;;;;;12.80;11.90;;;;;;;;;;5103174;28;20748;-66
2023/08/14 11:42:45;;;;;;;12.07;11.50;;;;;;;;;;5104041;28;20685;-68
2023/08/14 11:45:13;;;;;;;13.07;12.10;;;;;;;;;;5098844;28;20761;-66
2023/08/14 11:47:46;;;;;;;13.27;12.47;;;;;;;;;;5091040;28;20708;-66
2023/08/14 11:50:17;;;;;;;13.80;13.10;;;;;;;;;;5094473;28;20763;-68
2023/08/14 11:52:46;;;;;;;13.20;12.50;;;;;;;;;;5102106;28;20732;-66
2023/08/14 11:55:14;;;;;;;13.00;12.40;;;;;;;;;;5101726;28;20713;-66
2023/08/14 11:57:44;;;;;;;12.60;12.00;;;;;;;;;;5100475;28;20708;-66
2023/08/14 12:00:13;;;;;;;13.37;12.57;;;;;;;;;;5091548;28;20701;-66
2023/08/14 12:02:42;;;;;;;14.07;13.33;;;;;;;;;;5097086;28;20711;-66
2023/08/14 12:05:10;;;;;;;13.53;12.70;;;;;;;;;;5101981;28;20689;-67
2023/08/14 12:07:42;;;;;;;14.53;13.90;;;;;;;;;;5102543;28;20705;-66
2023/08/14 12:10:10;;;;;;;14.00;13.40;;;;;;;;;;5096926;28;21019;-66
2023/08/14 12:12:39;;;;;;;14.60;13.70;;;;;;;;;;5094567;28;20750;-66
2023/08/14 12:15:08;;;;;;;14.33;13.63;;;;;;;;;;5094846;28;20715;-66
2023/08/14 12:17:37;;;;;;;14.17;13.30;;;;;;;;;;5089784;28;20633;-67
2023/08/14 12:20:08;;;;;;;14.27;13.57;;;;;;;;;;5102953;28;20709;-66
2023/08/14 12:22:36;;;;;;;14.80;14.10;;;;;;;;;;5095670;28;20669;-66
2023/08/14 12:25:09;;;;;;;14.10;13.43;;;;;;;;;;5085922;28;20749;-66
2023/08/14 12:27:37;;;;;;;14.40;13.63;;;;;;;;;;5103800;28;20696;-68
2023/08/14 12:30:06;;;;;;;15.37;14.43;;;;;;;;;;5100615;28;20677;-67
2023/08/14 12:32:34;;;;;;;14.90;14.00;;;;;;;;;;5097863;28;20697;-66
2023/08/14 12:35:02;;;;;;;15.33;14.53;;;;;;;;;;5103061;28;20704;-66
2023/08/14 12:37:30;;;;;;;14.40;13.70;;;;;;;;;;5103353;28;20732;-66
2023/08/14 12:39:58;;;;;;;14.60;13.83;;;;;;;;;;5102885;28;20721;-66
2023/08/14 12:42:28;;;;;;;14.60;13.90;;;;;;;;;;5093696;28;20712;-66
2023/08/14 12:44:56;;;;;;;14.27;13.47;;;;;;;;;;5093266;28;20686;-66
2023/08/14 12:47:24;;;;;;;15.30;14.40;;;;;;;;;;5069077;28;20697;-65
2023/08/14 12:49:52;;;;;;;15.27;14.37;;;;;;;;;;5094000;28;20721;-65
2023/08/14 12:52:21;;;;;;;15.47;14.47;;;;;;;;;;5081246;28;20743;-65
2023/08/14 12:54:49;;;;;;;15.40;14.43;;;;;;;;;;5094255;28;20722;-64
2023/08/14 12:57:17;;;;;;;15.50;14.50;;;;;;;;;;5097165;28;20704;-65
2023/08/14 12:59:46;;;;;;;14.00;13.10;;;;;;;;;;5101055;28;20756;-65
2023/08/14 13:02:14;;;;;;;14.57;13.77;;;;;;;;;;5084694;28;21025;-65
2023/08/14 13:04:43;;;;;;;14.90;14.07;;;;;;;;;;5093767;28;20686;-67
2023/08/14 13:07:11;;;;;;;14.07;13.23;;;;;;;;;;5082550;28;21052;-64
2023/08/14 13:09:39;;;;;;;14.23;13.40;;;;;;;;;;5090882;28;20717;-65
2023/08/14 13:12:07;;;;;;;15.07;14.13;;;;;;;;;;5090149;28;20752;-65
2023/08/14 13:14:36;;;;;;;14.73;13.93;;;;;;;;;;5086365;28;20799;-65
2023/08/14 13:17:05;;;;;;;15.13;14.13;;;;;;;;;;5063952;28;20737;-65
2023/08/14 13:19:34;;;;;;;15.70;14.70;;;;;;;;;;5086061;28;20818;-65
2023/08/14 13:22:02;;;;;;;14.47;13.77;;;;;;;;;;5083389;28;20716;-65
2023/08/14 13:24:30;;;;;;;14.33;13.60;;;;;;;;;;5100292;28;20712;-65
2023/08/14 13:26:58;;;;;;;16.10;14.73;;;;;;;;;;5099114;28;20692;-65
2023/08/14 13:29:26;;;;;;;14.60;13.80;;;;;;;;;;5101477;28;20720;-65
2023/08/14 13:31:55;;;;;;;14.77;13.63;;;;;;;;;;5102286;28;21081;-65
2023/08/14 13:34:24;;;;;;;14.60;13.70;;;;;;;;;;5101303;28;20716;-64
2023/08/14 13:36:52;;;;;;;14.07;13.17;;;;;;;;;;5102409;28;20692;-64
2023/08/14 13:39:21;;;;;;;14.47;13.57;;;;;;;;;;5094209;28;20700;-65
2023/08/14 13:41:49;;;;;;;15.43;13.47;;;;;;;;;;5100186;28;20700;-65
2023/08/14 13:44:17;;;;;;;13.57;12.87;;;;;;;;;;5097948;28;20685;-65
2023/08/14 13:46:45;;;;;;;13.30;12.50;;;;;;;;;;5083007;28;20688;-65
2023/08/14 13:49:13;;;;;;;13.40;12.63;;;;;;;;;;5101905;28;21036;-65
2023/08/14 13:51:44;;;;;;;14.57;13.50;;;;;;;;;;5101976;28;20699;-65
2023/08/14 13:54:12;;;;;;;12.47;11.87;;;;;;;;;;5084878;28;20669;-67
2023/08/14 13:56:41;;;;;;;13.93;12.97;;;;;;;;;;5100809;28;20692;-65
2023/08/14 13:59:09;;;;;;;14.67;13.60;;;;;;;;;;5102446;28;20673;-66
2023/08/14 14:01:38;;;;;;;13.97;12.97;;;;;;;;;;5101633;28;20718;-65
2023/08/14 14:04:06;;;;;;;13.60;12.70;;;;;;;;;;5083736;28;20701;-66
2023/08/14 14:06:34;;;;;;;13.60;12.80;;;;;;;;;;5100179;28;20676;-65
2023/08/14 14:09:04;;;;;;;13.10;12.50;;;;;;;;;;5097348;28;20700;-68
2023/08/14 14:11:32;;;;;;;14.83;14.00;;;;;;;;;;5080332;28;20999;-69
2023/08/14 14:14:00;;;;;;;14.90;14.10;;;;;;;;;;5070733;28;20983;-69
2023/08/14 14:16:49;;;;;;;14.43;13.60;;;;;;;;;;5069134;28;20995;-69
2023/08/14 14:19:17;;;;;;;14.87;13.60;;;;;;;;;;5071223;28;20599;-69
2023/08/14 14:21:45;;;;;;;14.03;13.10;;;;;;;;;;5070243;28;20660;-68
2023/08/14 14:24:15;;;;;;;13.47;12.87;;;;;;;;;;5070813;28;20610;-68
2023/08/14 14:26:43;;;;;;;13.50;12.60;;;;;;;;;;5070259;28;20609;-68
2023/08/14 14:29:11;;;;;;;14.83;13.23;;;;;;;;;;5064084;28;20629;-67
2023/08/14 14:31:39;;;;;;;13.83;12.93;;;;;;;;;;5089027;28;20663;-65
2023/08/14 14:34:08;;;;;;;13.10;12.20;;;;;;;;;;5089694;28;20634;-66
2023/08/14 14:36:36;;;;;;;12.37;11.77;;;;;;;;;;5088136;28;20634;-66
2023/08/14 14:39:05;;;;;;;12.00;11.40;;;;;;;;;;5089932;28;20643;-65
2023/08/14 14:41:34;;;;;;;12.47;11.77;;;;;;;;;;5117017;28;20687;-65
2023/08/14 14:44:03;;;;;;;11.80;11.00;;;;;;;;;;5130331;28;20627;-65
2023/08/14 14:46:31;;;;;;;12.57;11.50;;;;;;;;;;5129526;28;20641;-66
2023/08/14 14:49:00;;;;;;;11.23;10.50;;;;;;;;;;5130466;28;20631;-65
2023/08/14 14:51:28;;;;;;;11.37;10.47;;;;;;;;;;5111708;28;20625;-65